Time;durP1;ratioP1;P1;durP2;ratioP2;P2;SDS_P1;SDS_P2;PMS_P1;PMS_P2;Temp;Humidity;BMP_temperature;BMP_pressure;BME280_temperature;BME280_humidity;BME280_pressure;Samples;Min_cycle;Max_cycle;Signal;HPM_P1;HPM_P2
2021/12/16 00:08:04;;;;;;;17.95;7.32;;;8.90;99.90;;;;;;5052998;28;20060;-56
2021/12/16 00:10:41;;;;;;;18.63;6.57;;;8.90;99.90;;;;;;5051327;28;20041;-55
2021/12/16 00:34:58;;;;;;;24.85;8.13;;;8.80;99.90;;;;;;5051866;28;20091;-52
2021/12/16 00:37:26;;;;;;;17.70;7.65;;;8.90;99.90;;;;;;5043039;28;20426;-54
2021/12/16 00:39:52;;;;;;;18.50;8.23;;;8.80;99.90;;;;;;5051406;28;20033;-51
2021/12/16 00:47:48;;;;;;;17.02;7.55;;;8.80;99.90;;;;;;5049372;28;20045;-54
2021/12/16 00:54:09;;;;;;;25.55;9.35;;;8.80;99.90;;;;;;5048609;28;20041;-56
2021/12/16 00:55:58;;;;;;;20.80;8.73;;;8.90;99.90;;;;;;5031280;28;20049;-57
2021/12/16 00:58:33;;;;;;;25.80;9.30;;;8.80;99.90;;;;;;5050647;28;20475;-53
2021/12/16 01:01:19;;;;;;;26.77;9.20;;;8.80;99.90;;;;;;5047478;28;20068;-55
2021/12/16 01:04:13;;;;;;;21.15;9.13;;;8.80;99.90;;;;;;5040995;28;20115;-55
2021/12/16 01:34:22;;;;;;;28.27;11.75;;;8.90;99.90;;;;;;5048016;28;20044;-58
2021/12/16 01:37:07;;;;;;;26.50;11.38;;;8.80;99.90;;;;;;5034260;28;20043;-52
2021/12/16 01:47:52;;;;;;;31.52;12.57;;;8.70;99.90;;;;;;5035588;28;20064;-55
2021/12/16 01:50:26;;;;;;;33.88;13.30;;;8.80;99.90;;;;;;5050380;28;20045;-52
2021/12/16 01:55:48;;;;;;;35.28;13.25;;;8.80;99.90;;;;;;5029805;28;20045;-57
2021/12/16 01:58:19;;;;;;;29.23;13.30;;;8.80;99.90;;;;;;5047399;28;20438;-53
2021/12/16 02:03:45;;;;;;;35.05;13.85;;;8.80;99.90;;;;;;5041755;28;20056;-52
2021/12/16 02:08:41;;;;;;;33.70;13.75;;;8.80;99.90;;;;;;5050024;28;20505;-51
2021/12/16 02:31:14;;;;;;;40.75;16.58;;;8.70;99.90;;;;;;5046900;28;20044;-54
2021/12/16 02:36:29;;;;;;;47.67;18.50;;;8.70;99.90;;;;;;5042776;28;20159;-59
2021/12/16 02:39:00;;;;;;;45.30;18.30;;;8.70;99.90;;;;;;5039828;28;20076;-60
2021/12/16 02:41:28;;;;;;;56.60;19.20;;;8.60;99.90;;;;;;5028864;28;20060;-51
2021/12/16 02:49:35;;;;;;;50.42;18.50;;;8.60;99.90;;;;;;5045875;28;20083;-54
2021/12/16 02:52:01;;;;;;;51.47;20.25;;;8.60;99.90;;;;;;5041465;28;20026;-59
2021/12/16 02:54:28;;;;;;;45.40;18.77;;;8.60;99.90;;;;;;5047149;28;20029;-54
2021/12/16 02:56:54;;;;;;;56.95;20.10;;;8.50;99.90;;;;;;5037566;28;20034;-53
2021/12/16 02:59:27;;;;;;;56.78;20.63;;;8.50;99.90;;;;;;5047056;28;20029;-52
2021/12/16 03:01:55;;;;;;;56.92;20.80;;;8.50;99.90;;;;;;5043679;28;20056;-60
2021/12/16 03:04:25;;;;;;;51.53;19.13;;;8.50;99.90;;;;;;5041554;28;20037;-54
2021/12/16 03:06:53;;;;;;;51.03;19.98;;;8.50;99.90;;;;;;5040339;28;20048;-55
2021/12/16 03:09:35;;;;;;;55.00;21.45;;;8.40;99.90;;;;;;5049212;28;20026;-51
2021/12/16 03:12:47;;;;;;;55.50;20.33;;;8.40;99.90;;;;;;5039588;28;20033;-60
2021/12/16 03:14:58;;;;;;;52.10;20.63;;;8.40;99.90;;;;;;5041931;28;20156;-57
2021/12/16 03:17:34;;;;;;;62.45;20.80;;;8.50;99.90;;;;;;5039429;28;20619;-57
2021/12/16 03:20:10;;;;;;;48.58;19.75;;;8.50;99.90;;;;;;5046904;28;20044;-58
2021/12/16 03:25:26;;;;;;;51.47;21.25;;;8.50;99.90;;;;;;5047351;28;20067;-58
2021/12/16 03:28:48;;;;;;;50.45;20.05;;;8.50;99.90;;;;;;5048914;28;20025;-57
2021/12/16 03:31:05;;;;;;;50.28;20.17;;;8.50;99.90;;;;;;5044619;28;20044;-57
2021/12/16 03:39:06;;;;;;;60.80;23.25;;;8.50;99.90;;;;;;5047599;28;20080;-57
2021/12/16 03:41:32;;;;;;;54.13;21.77;;;8.40;99.90;;;;;;5046746;28;20029;-57
2021/12/16 03:43:59;;;;;;;60.10;22.27;;;8.50;99.90;;;;;;5040845;28;20033;-57
2021/12/16 03:46:32;;;;;;;65.35;23.45;;;8.50;99.90;;;;;;5047048;28;20043;-57
2021/12/16 03:49:04;;;;;;;65.43;23.73;;;8.40;99.90;;;;;;5048502;28;20170;-54
2021/12/16 03:51:38;;;;;;;60.90;24.30;;;8.40;99.90;;;;;;5050415;28;20037;-55
2021/12/16 03:54:18;;;;;;;65.25;25.58;;;8.40;99.90;;;;;;5049746;28;20033;-56
2021/12/16 03:56:45;;;;;;;77.88;25.52;;;8.40;99.90;;;;;;5031838;28;20029;-55
2021/12/16 03:59:13;;;;;;;65.68;24.88;;;8.40;99.90;;;;;;5042379;28;20098;-58
2021/12/16 04:01:39;;;;;;;62.55;24.58;;;8.40;99.90;;;;;;5031501;28;20042;-56
2021/12/16 04:04:06;;;;;;;65.28;23.65;;;8.40;99.90;;;;;;5045714;28;20029;-56
2021/12/16 04:06:34;;;;;;;71.07;26.58;;;8.40;99.90;;;;;;5051566;28;20029;-58
2021/12/16 04:09:00;;;;;;;57.60;25.08;;;8.40;99.90;;;;;;5043046;28;20562;-56
2021/12/16 04:11:39;;;;;;;68.32;25.02;;;8.50;99.90;;;;;;5050160;28;20160;-54
2021/12/16 04:14:07;;;;;;;67.90;25.20;;;8.40;99.90;;;;;;5044753;28;20393;-56
2021/12/16 04:16:42;;;;;;;62.20;25.17;;;8.40;99.90;;;;;;5049237;28;20676;-53
2021/12/16 04:19:12;;;;;;;66.65;24.35;;;8.40;99.90;;;;;;5043936;28;20116;-55
2021/12/16 04:21:42;;;;;;;79.43;25.45;;;8.50;99.90;;;;;;5032516;28;20030;-55
2021/12/16 04:24:09;;;;;;;62.65;24.65;;;8.50;99.90;;;;;;5050826;28;20117;-55
2021/12/16 04:26:37;;;;;;;59.20;25.23;;;8.50;99.90;;;;;;5050027;28;20483;-56
2021/12/16 04:29:05;;;;;;;71.25;26.25;;;8.50;99.90;;;;;;5051072;28;20039;-55
2021/12/16 04:31:32;;;;;;;65.72;24.90;;;8.50;99.90;;;;;;5042960;28;20511;-54
2021/12/16 04:33:58;;;;;;;66.15;25.77;;;8.50;99.90;;;;;;5051053;28;20036;-57
2021/12/16 04:36:24;;;;;;;66.18;24.35;;;8.50;99.90;;;;;;5049909;28;20037;-58
2021/12/16 04:38:50;;;;;;;70.38;25.48;;;8.50;99.90;;;;;;5051716;28;20552;-57
2021/12/16 04:41:16;;;;;;;77.10;26.05;;;8.50;99.90;;;;;;5049798;28;20048;-58
2021/12/16 04:43:51;;;;;;;68.65;25.25;;;8.40;99.90;;;;;;5045986;28;20044;-53
2021/12/16 04:46:21;;;;;;;70.00;22.83;;;8.40;99.90;;;;;;5047571;28;20060;-54
2021/12/16 04:48:50;;;;;;;73.75;25.65;;;8.50;99.90;;;;;;5047048;28;20033;-53
2021/12/16 04:51:17;;;;;;;68.35;24.42;;;8.50;99.90;;;;;;5050825;28;20037;-54
2021/12/16 04:53:43;;;;;;;73.22;25.65;;;8.50;99.90;;;;;;5048819;28;20110;-54
2021/12/16 04:56:11;;;;;;;71.20;24.52;;;8.50;99.90;;;;;;5045715;28;20037;-52
2021/12/16 04:58:38;;;;;;;69.07;26.30;;;8.50;99.90;;;;;;5039511;28;20059;-55
2021/12/16 05:01:04;;;;;;;70.57;25.52;;;8.50;99.90;;;;;;5050018;28;20040;-55
2021/12/16 05:03:31;;;;;;;75.22;26.50;;;8.50;99.90;;;;;;5046398;28;20031;-53
2021/12/16 05:05:57;;;;;;;66.93;24.67;;;8.50;99.90;;;;;;5051234;28;20033;-54
2021/12/16 05:08:24;;;;;;;69.35;26.63;;;8.50;99.90;;;;;;5044636;28;20399;-52
2021/12/16 05:10:53;;;;;;;75.43;26.92;;;8.50;99.90;;;;;;5050765;28;20025;-54
2021/12/16 05:13:23;;;;;;;91.88;28.20;;;8.40;99.90;;;;;;5043443;28;20037;-52
2021/12/16 05:15:49;;;;;;;83.38;28.20;;;8.50;99.90;;;;;;5050664;28;20037;-53
2021/12/16 05:18:24;;;;;;;80.90;28.20;;;8.50;99.90;;;;;;5043839;28;20064;-54
2021/12/16 05:20:49;;;;;;;95.40;29.27;;;8.50;99.90;;;;;;5050739;28;20059;-54
2021/12/16 05:28:41;;;;;;;94.20;29.35;;;8.50;99.90;;;;;;5042369;28;20083;-55
2021/12/16 05:31:07;;;;;;;95.10;29.52;;;8.50;99.90;;;;;;5041944;28;20029;-53
2021/12/16 05:33:33;;;;;;;86.70;31.15;;;8.60;99.90;;;;;;5049575;28;20124;-50
2021/12/16 05:35:59;;;;;;;85.55;30.00;;;8.50;99.90;;;;;;5044614;28;20530;-50
2021/12/16 05:38:27;;;;;;;89.20;31.92;;;8.60;99.90;;;;;;5048507;28;20448;-51
2021/12/16 05:40:54;;;;;;;82.13;29.58;;;8.60;99.90;;;;;;5050218;28;20032;-50
2021/12/16 05:43:23;;;;;;;82.15;27.15;;;8.60;99.90;;;;;;5047049;28;20060;-50
2021/12/16 05:45:52;;;;;;;85.90;28.40;;;8.60;99.90;;;;;;5049098;28;20099;-51
2021/12/16 05:48:26;;;;;;;80.63;26.23;;;8.60;99.90;;;;;;5050047;28;20053;-50
2021/12/16 05:50:59;;;;;;;76.43;26.35;;;8.60;99.90;;;;;;5048394;28;20117;-52
2021/12/16 05:53:25;;;;;;;74.72;25.52;;;8.60;99.90;;;;;;5048231;28;20044;-49
2021/12/16 05:55:51;;;;;;;71.07;27.17;;;8.60;99.90;;;;;;5048445;28;20043;-48
2021/12/16 05:58:18;;;;;;;82.88;25.98;;;8.60;99.90;;;;;;5050179;28;20021;-48
2021/12/16 06:00:47;;;;;;;78.28;27.02;;;8.60;99.90;;;;;;5046899;28;20107;-49
2021/12/16 06:03:13;;;;;;;73.97;26.58;;;8.60;99.90;;;;;;5044383;28;20512;-49
2021/12/16 06:05:39;;;;;;;64.20;24.27;;;8.60;99.90;;;;;;5048086;28;20024;-47
2021/12/16 06:08:05;;;;;;;69.47;25.52;;;8.60;99.90;;;;;;5045111;28;20479;-47
2021/12/16 06:13:02;;;;;;;68.68;24.48;;;8.70;99.90;;;;;;5049269;28;20043;-48
2021/12/16 06:15:55;;;;;;;71.22;25.10;;;8.70;99.90;;;;;;5046870;28;20037;-48
2021/12/16 06:29:19;;;;;;;68.00;26.25;;;8.60;99.90;;;;;;5045167;28;20386;-48
2021/12/16 06:31:45;;;;;;;65.40;25.42;;;8.60;99.90;;;;;;5044651;28;20033;-50
2021/12/16 06:34:11;;;;;;;66.25;26.13;;;8.60;99.90;;;;;;5045751;28;20062;-48
2021/12/16 06:36:37;;;;;;;72.65;26.35;;;8.60;99.90;;;;;;5041441;28;20451;-49
2021/12/16 06:39:04;;;;;;;79.78;26.80;;;8.60;99.90;;;;;;5048837;28;20044;-49
2021/12/16 06:41:34;;;;;;;71.05;26.98;;;8.60;99.90;;;;;;5046992;28;20047;-49
2021/12/16 06:44:10;;;;;;;60.72;22.90;;;8.70;99.90;;;;;;5048928;28;20043;-51
2021/12/16 06:46:39;;;;;;;67.18;24.08;;;8.70;99.90;;;;;;5046177;28;20075;-51
2021/12/16 06:49:05;;;;;;;58.63;22.98;;;8.70;99.90;;;;;;5049095;28;20136;-49
2021/12/16 06:51:42;;;;;;;63.20;23.48;;;8.70;99.90;;;;;;5046963;28;20116;-50
2021/12/16 06:54:14;;;;;;;64.63;23.00;;;8.70;99.90;;;;;;5048710;28;20029;-53
2021/12/16 06:56:59;;;;;;;45.78;19.23;;;8.70;99.90;;;;;;5047064;28;20060;-52
2021/12/16 06:59:32;;;;;;;47.75;18.48;;;8.80;99.90;;;;;;5047680;28;20032;-52
2021/12/16 07:04:31;;;;;;;44.90;18.98;;;8.80;99.90;;;;;;5031614;28;20051;-48
2021/12/16 07:06:58;;;;;;;52.55;18.60;;;8.90;99.90;;;;;;5049046;28;20111;-52
2021/12/16 07:09:24;;;;;;;48.60;17.80;;;8.90;99.90;;;;;;5047020;28;20431;-49
2021/12/16 07:11:53;;;;;;;34.83;15.77;;;8.80;99.90;;;;;;5048318;28;20037;-53
2021/12/16 07:14:24;;;;;;;40.78;17.15;;;8.90;99.90;;;;;;5045652;28;20033;-51
2021/12/16 07:16:56;;;;;;;46.75;16.60;;;8.90;99.90;;;;;;5048815;28;20033;-54
2021/12/16 07:19:22;;;;;;;44.15;16.55;;;8.90;99.90;;;;;;5038903;28;20048;-54
2021/12/16 07:21:48;;;;;;;45.95;17.13;;;8.90;99.90;;;;;;5048215;28;20033;-50
2021/12/16 07:24:17;;;;;;;45.20;16.58;;;8.90;99.90;;;;;;5050494;28;20397;-51
2021/12/16 07:26:44;;;;;;;49.25;17.25;;;8.90;99.90;;;;;;5052693;28;20458;-51
2021/12/16 07:29:09;;;;;;;49.75;16.90;;;8.90;99.90;;;;;;5046173;28;20033;-53
2021/12/16 07:31:38;;;;;;;55.92;16.98;;;8.90;99.90;;;;;;5052027;28;20485;-54
2021/12/16 07:34:05;;;;;;;44.65;17.60;;;8.90;99.90;;;;;;5047142;28;20067;-52
2021/12/16 07:36:33;;;;;;;51.55;17.50;;;9.00;99.90;;;;;;5052195;28;20061;-51
2021/12/16 07:39:00;;;;;;;49.50;17.73;;;9.00;99.90;;;;;;5043926;28;20036;-52
2021/12/16 07:41:33;;;;;;;44.58;17.38;;;9.00;99.90;;;;;;5050861;28;20037;-50
2021/12/16 07:44:12;;;;;;;;;;;9.00;99.90;;;;;;5050482;28;20166;-51
2021/12/16 07:46:41;;;;;;;50.78;17.70;;;9.00;99.90;;;;;;5044021;28;20389;-52
2021/12/16 07:49:08;;;;;;;48.83;17.25;;;9.00;99.90;;;;;;5038885;28;20072;-51
2021/12/16 07:51:34;;;;;;;45.58;16.38;;;9.00;99.90;;;;;;5045511;28;20108;-54
2021/12/16 07:54:00;;;;;;;54.72;17.40;;;9.00;99.90;;;;;;5052026;28;20057;-54
2021/12/16 07:56:26;;;;;;;41.63;16.75;;;9.00;99.90;;;;;;5048006;28;20083;-52
2021/12/16 07:58:52;;;;;;;40.58;16.60;;;9.00;99.90;;;;;;5050856;28;20033;-56
2021/12/16 08:01:18;;;;;;;43.17;17.58;;;9.00;99.90;;;;;;5048246;28;20391;-49
2021/12/16 08:03:44;;;;;;;49.35;16.30;;;9.10;99.90;;;;;;5038831;28;20064;-50
2021/12/16 08:06:21;;;;;;;44.55;16.75;;;9.20;99.90;;;;;;5045713;28;20032;-49
2021/12/16 08:08:50;;;;;;;39.60;15.77;;;9.20;99.90;;;;;;5038121;28;20123;-51
2021/12/16 08:11:17;;;;;;;35.05;14.45;;;9.20;99.90;;;;;;5050879;28;20052;-50
2021/12/16 08:13:42;;;;;;;28.52;11.80;;;9.20;99.90;;;;;;5044844;28;20441;-50
2021/12/16 08:16:08;;;;;;;35.60;13.23;;;9.10;99.90;;;;;;5055115;28;20029;-51
2021/12/16 08:18:34;;;;;;;39.15;13.05;;;9.10;99.90;;;;;;5052979;28;20029;-52
2021/12/16 08:21:00;;;;;;;31.65;13.23;;;9.10;99.90;;;;;;5053363;28;20029;-52
2021/12/16 08:23:26;;;;;;;31.02;12.00;;;9.10;99.90;;;;;;5044511;28;20043;-51
2021/12/16 08:25:52;;;;;;;31.70;11.75;;;9.00;99.90;;;;;;5051822;28;20041;-51
2021/12/16 08:28:18;;;;;;;28.33;11.00;;;9.00;99.90;;;;;;5049253;28;20025;-51
2021/12/16 08:30:47;;;;;;;28.92;10.38;;;9.10;99.90;;;;;;5044273;28;20068;-51
2021/12/16 08:33:14;;;;;;;25.40;11.38;;;9.10;99.90;;;;;;5049332;28;20132;-51
2021/12/16 08:35:43;;;;;;;34.47;10.57;;;9.10;99.90;;;;;;5047126;28;20079;-51
2021/12/16 08:38:11;;;;;;;29.52;11.52;;;9.10;99.90;;;;;;5047859;28;20032;-51
2021/12/16 08:40:39;;;;;;;24.25;10.88;;;9.10;99.90;;;;;;5028965;28;20055;-53
2021/12/16 08:43:06;;;;;;;30.65;12.68;;;9.10;99.90;;;;;;5050689;28;20045;-55
2021/12/16 08:45:32;;;;;;;32.70;11.38;;;9.10;99.90;;;;;;5049022;28;20025;-50
2021/12/16 08:47:59;;;;;;;50.63;12.93;;;9.10;99.90;;;;;;5048486;28;20036;-50
2021/12/16 08:50:30;;;;;;;29.20;11.25;;;9.10;99.90;;;;;;5047803;28;20045;-51
2021/12/16 08:52:58;;;;;;;19.92;8.35;;;9.10;99.90;;;;;;5050189;28;20047;-54
2021/12/16 08:55:27;;;;;;;19.33;9.15;;;9.10;99.90;;;;;;5042362;28;20091;-50
2021/12/16 08:57:53;;;;;;;16.85;6.85;;;9.10;99.90;;;;;;5045479;28;20036;-50
2021/12/16 09:00:24;;;;;;;21.75;8.68;;;9.10;99.90;;;;;;5043075;28;20038;-52
2021/12/16 09:02:50;;;;;;;25.52;9.10;;;9.20;99.90;;;;;;5045291;28;20053;-50
2021/12/16 09:05:16;;;;;;;26.23;9.85;;;9.20;99.90;;;;;;5049547;28;20040;-50
2021/12/16 09:07:45;;;;;;;22.30;10.00;;;9.20;99.90;;;;;;5044538;28;20482;-52
2021/12/16 09:10:12;;;;;;;17.83;8.65;;;9.20;99.90;;;;;;5044277;28;20056;-49
2021/12/16 09:12:51;;;;;;;17.02;8.65;;;9.20;99.90;;;;;;5041520;28;20048;-48
2021/12/16 09:15:19;;;;;;;21.08;8.65;;;9.20;99.90;;;;;;5044625;28;20404;-50
2021/12/16 09:17:45;;;;;;;18.83;8.95;;;9.30;99.90;;;;;;5049057;28;20025;-50
2021/12/16 09:20:11;;;;;;;16.73;8.15;;;9.30;99.90;;;;;;5046193;28;20029;-52
2021/12/16 09:22:38;;;;;;;16.35;8.02;;;9.30;99.90;;;;;;5041251;28;20020;-52
2021/12/16 09:25:06;;;;;;;16.85;8.65;;;9.20;99.90;;;;;;5041135;28;20021;-49
2021/12/16 09:27:31;;;;;;;17.40;8.85;;;9.20;99.90;;;;;;5048873;28;20535;-49
2021/12/16 09:29:58;;;;;;;19.80;8.10;;;9.20;99.90;;;;;;5050427;28;20494;-50
2021/12/16 09:32:27;;;;;;;19.20;8.98;;;9.30;99.90;;;;;;5040705;28;20112;-50
2021/12/16 09:34:54;;;;;;;18.10;8.85;;;9.30;99.90;;;;;;5050253;28;20044;-51
2021/12/16 09:37:19;;;;;;;19.85;9.65;;;9.30;99.90;;;;;;5043877;28;20045;-50
2021/12/16 09:39:45;;;;;;;20.90;9.55;;;9.30;99.90;;;;;;5050121;28;20028;-48
2021/12/16 09:42:11;;;;;;;19.15;9.25;;;9.40;99.90;;;;;;5044366;28;20112;-51
2021/12/16 09:44:38;;;;;;;19.55;9.02;;;9.60;99.90;;;;;;5049584;28;20040;-49
2021/12/16 09:47:07;;;;;;;18.23;8.77;;;9.60;99.90;;;;;;5049084;28;20044;-49
2021/12/16 09:49:33;;;;;;;21.40;8.82;;;9.60;99.90;;;;;;5051119;28;20029;-49
2021/12/16 09:52:02;;;;;;;19.27;8.02;;;9.60;99.90;;;;;;5049077;28;20039;-50
2021/12/16 09:54:30;;;;;;;18.13;8.20;;;9.70;99.90;;;;;;5050920;28;20033;-48
2021/12/16 09:56:57;;;;;;;17.95;7.93;;;9.80;99.90;;;;;;5048499;28;20059;-51
2021/12/16 09:59:26;;;;;;;18.73;8.52;;;9.90;99.90;;;;;;5049308;28;20115;-50
2021/12/16 10:01:55;;;;;;;16.20;7.75;;;9.90;99.90;;;;;;5043728;28;20124;-49
2021/12/16 10:04:23;;;;;;;18.20;8.00;;;10.00;99.90;;;;;;5047413;28;20033;-54
2021/12/16 10:06:52;;;;;;;13.90;7.15;;;10.00;99.90;;;;;;5046166;28;20017;-50
2021/12/16 10:09:19;;;;;;;14.85;6.85;;;9.90;99.90;;;;;;5049134;28;20025;-49
2021/12/16 10:11:50;;;;;;;12.00;6.65;;;9.80;99.90;;;;;;5046885;28;20033;-49
2021/12/16 10:15:07;;;;;;;16.38;7.05;;;9.90;99.90;;;;;;5049701;28;20036;-51
2021/12/16 10:19:47;;;;;;;20.73;6.18;;;9.90;99.90;;;;;;5043243;28;20051;-53
2021/12/16 10:22:18;;;;;;;13.55;5.25;;;9.90;99.90;;;;;;5042975;28;20017;-49
2021/12/16 10:24:46;;;;;;;16.93;5.67;;;9.80;99.90;;;;;;5049054;28;20048;-48
2021/12/16 10:27:15;;;;;;;18.88;5.55;;;9.80;99.90;;;;;;5049492;28;20025;-49
2021/12/16 10:29:48;;;;;;;21.23;6.57;;;9.80;99.90;;;;;;5049176;28;20039;-49
2021/12/16 10:32:31;;;;;;;20.27;7.55;;;9.80;99.90;;;;;;5043090;28;20032;-49
2021/12/16 10:35:03;;;;;;;15.18;6.75;;;9.80;99.90;;;;;;5038455;28;20021;-49
2021/12/16 10:37:34;;;;;;;21.33;7.72;;;9.80;99.90;;;;;;5041845;28;20027;-49
2021/12/16 10:40:28;;;;;;;18.40;7.13;;;9.80;99.90;;;;;;5041919;28;20033;-50
2021/12/16 10:42:55;;;;;;;25.42;7.15;;;9.80;99.90;;;;;;5041201;28;20470;-52
2021/12/16 10:45:29;;;;;;;20.63;6.40;;;9.80;99.90;;;;;;5040400;28;20022;-55
2021/12/16 10:48:19;;;;;;;15.25;6.68;;;9.80;99.90;;;;;;5048760;28;20497;-53
2021/12/16 10:51:08;;;;;;;20.58;6.65;;;9.80;99.90;;;;;;5047182;28;20029;-50
2021/12/16 10:53:57;;;;;;;32.05;8.10;;;9.80;99.90;;;;;;5047998;28;20025;-51
2021/12/16 10:56:48;;;;;;;17.40;7.90;;;9.80;99.90;;;;;;5046007;28;20052;-54
2021/12/16 10:59:25;;;;;;;18.63;9.02;;;9.80;99.90;;;;;;5047815;28;20036;-52
2021/12/16 11:01:59;;;;;;;23.20;9.88;;;9.80;99.90;;;;;;5044951;28;20036;-49
2021/12/16 11:04:27;;;;;;;19.17;9.50;;;9.80;99.90;;;;;;5048568;28;20033;-51
2021/12/16 11:07:07;;;;;;;21.65;9.43;;;9.90;99.90;;;;;;5044010;28;20025;-49
2021/12/16 11:09:38;;;;;;;20.60;8.10;;;10.00;99.90;;;;;;5048768;28;20025;-53
2021/12/16 11:12:12;;;;;;;20.60;7.73;;;10.00;99.90;;;;;;5048270;28;20044;-51
2021/12/16 11:14:40;;;;;;;27.80;7.45;;;10.00;99.90;;;;;;5027985;28;20026;-53
2021/12/16 11:17:09;;;;;;;28.63;7.97;;;10.00;99.90;;;;;;5045070;28;20029;-52
2021/12/16 11:19:47;;;;;;;18.60;5.88;;;10.10;99.90;;;;;;5048527;28;20443;-50
2021/12/16 11:22:27;;;;;;;19.08;6.22;;;10.20;99.90;;;;;;5045367;28;20124;-51
2021/12/16 11:24:53;;;;;;;19.42;5.35;;;10.20;99.90;;;;;;5035819;28;20029;-52
2021/12/16 11:27:21;;;;;;;19.38;5.10;;;10.10;99.90;;;;;;5048307;28;20021;-54
2021/12/16 11:29:47;;;;;;;22.48;5.68;;;10.10;99.90;;;;;;5043878;28;20041;-53
2021/12/16 11:32:35;;;;;;;16.15;4.20;;;10.10;99.90;;;;;;5047805;28;20426;-56
2021/12/16 11:35:23;;;;;;;20.15;4.43;;;10.10;99.90;;;;;;5040727;28;20037;-55
2021/12/16 11:37:49;;;;;;;14.57;3.78;;;10.00;99.90;;;;;;5038528;28;20499;-55
2021/12/16 11:40:16;;;;;;;11.25;3.72;;;10.10;99.90;;;;;;5033854;28;20475;-56
2021/12/16 11:42:42;;;;;;;21.00;4.38;;;10.10;99.90;;;;;;5045187;28;20029;-54
2021/12/16 11:45:08;;;;;;;17.35;4.13;;;10.20;99.90;;;;;;5047888;28;20536;-55
2021/12/16 11:47:33;;;;;;;17.23;3.33;;;10.10;99.90;;;;;;5046637;28;20039;-53
2021/12/16 11:50:05;;;;;;;20.92;3.83;;;10.10;99.90;;;;;;5048297;28;20335;-53
2021/12/16 11:52:36;;;;;;;27.17;4.50;;;10.20;99.90;;;;;;5045344;28;20059;-53
2021/12/16 11:55:12;;;;;;;18.80;4.35;;;10.20;99.90;;;;;;5047132;28;20040;-56
2021/12/16 11:57:44;;;;;;;19.23;3.55;;;10.10;99.90;;;;;;5043665;28;20053;-54
2021/12/16 12:00:15;;;;;;;22.42;3.95;;;10.10;99.90;;;;;;5047365;28;20032;-57
2021/12/16 12:02:43;;;;;;;19.40;3.90;;;10.20;99.90;;;;;;5043993;28;20116;-56
2021/12/16 12:05:42;;;;;;;22.73;4.03;;;10.20;99.90;;;;;;5048261;28;20025;-56
2021/12/16 12:08:20;;;;;;;16.77;3.38;;;10.20;99.90;;;;;;5044899;28;20037;-57
2021/12/16 12:11:02;;;;;;;19.98;3.45;;;10.30;99.90;;;;;;5041442;28;20033;-57
2021/12/16 12:13:35;;;;;;;20.95;3.38;;;10.40;99.90;;;;;;5050896;28;20029;-55
2021/12/16 12:16:17;;;;;;;26.00;3.60;;;10.50;99.90;;;;;;5050576;28;20043;-56
2021/12/16 12:18:58;;;;;;;16.77;4.00;;;10.60;99.90;;;;;;5043140;28;20114;-57
2021/12/16 12:21:40;;;;;;;16.30;3.78;;;10.50;99.90;;;;;;5049397;28;20045;-56
2021/12/16 12:24:12;;;;;;;23.98;4.88;;;10.40;99.90;;;;;;5049080;28;20021;-57
2021/12/16 12:27:00;;;;;;;16.90;3.88;;;10.40;99.90;;;;;;5042975;28;20115;-56
2021/12/16 12:29:36;;;;;;;21.20;3.65;;;10.40;99.90;;;;;;5048268;28;20041;-56
2021/12/16 12:32:11;;;;;;;24.63;4.10;;;10.50;99.90;;;;;;5044553;28;20501;-54
2021/12/16 12:34:39;;;;;;;21.40;3.67;;;10.60;99.90;;;;;;5042801;28;20128;-55
2021/12/16 12:37:08;;;;;;;17.42;3.55;;;10.50;99.90;;;;;;5036214;28;20026;-53
2021/12/16 12:39:38;;;;;;;23.98;4.00;;;10.40;99.90;;;;;;5050935;28;20032;-53
2021/12/16 12:42:07;;;;;;;21.30;3.55;;;10.30;99.90;;;;;;5050320;28;20264;-54
2021/12/16 12:44:33;;;;;;;19.33;3.33;;;10.20;99.90;;;;;;5050991;28;20037;-54
2021/12/16 12:47:05;;;;;;;15.50;3.65;;;10.20;99.90;;;;;;5043133;28;20211;-52
2021/12/16 12:49:31;;;;;;;25.83;3.45;;;10.30;99.90;;;;;;5049356;28;20075;-56
2021/12/16 12:52:30;;;;;;;21.42;3.88;;;10.30;99.90;;;;;;5049153;28;20040;-56
2021/12/16 12:55:06;;;;;;;19.65;3.60;;;10.30;99.90;;;;;;5034429;28;20041;-50
2021/12/16 12:57:34;;;;;;;30.15;4.18;;;10.30;99.90;;;;;;5046565;28;20068;-50
2021/12/16 13:00:03;;;;;;;19.35;3.38;;;10.30;99.90;;;;;;5047435;28;20033;-51
2021/12/16 13:02:34;;;;;;;18.48;3.15;;;10.20;99.90;;;;;;5039820;28;20032;-54
2021/12/16 13:05:05;;;;;;;19.67;3.45;;;10.20;99.90;;;;;;5046149;28;20551;-52
2021/12/16 13:07:33;;;;;;;24.30;3.85;;;10.20;99.90;;;;;;5047272;28;20037;-55
2021/12/16 13:10:14;;;;;;;19.70;3.40;;;10.20;99.90;;;;;;5037053;28;20056;-51
2021/12/16 13:12:58;;;;;;;34.05;4.28;;;10.20;99.90;;;;;;5046459;28;20048;-52
2021/12/16 13:15:50;;;;;;;29.52;4.65;;;10.10;99.90;;;;;;5044552;28;20036;-51
2021/12/16 13:26:51;;;;;;;29.27;6.38;;;10.30;99.90;;;;;;4995962;28;20031;-55
2021/12/16 13:32:10;;;;;;;17.13;3.50;;;10.30;99.90;;;;;;5048540;28;20490;-56
2021/12/16 13:34:41;;;;;;;23.30;5.65;;;10.20;99.90;;;;;;5048413;28;20090;-54
2021/12/16 13:37:13;;;;;;;22.40;3.60;;;10.10;99.90;;;;;;5050066;28;20032;-54
2021/12/16 13:39:45;;;;;;;15.35;3.40;;;10.10;99.90;;;;;;5044344;28;20037;-52
2021/12/16 13:42:15;;;;;;;15.50;3.33;;;9.90;99.90;;;;;;5048468;28;20029;-53
2021/12/16 13:44:46;;;;;;;16.33;3.60;;;9.80;99.90;;;;;;5040301;28;20040;-52
2021/12/16 13:48:32;;;;;;;29.80;4.38;;;9.70;99.90;;;;;;5048213;28;20117;-51
2021/12/16 14:05:20;;;;;;;17.55;4.40;;;9.60;99.90;;;;;;5046365;28;20059;-53
2021/12/16 14:07:57;;;;;;;21.48;3.55;;;9.60;99.90;;;;;;5042376;28;20055;-51
2021/12/16 14:17:11;;;;;;;22.15;3.97;;;9.60;99.90;;;;;;5050177;28;20040;-51
2021/12/16 14:31:47;;;;;;;26.42;6.93;;;9.10;99.90;;;;;;5042269;28;20068;-56
2021/12/16 14:37:27;;;;;;;25.27;4.50;;;9.00;99.90;;;;;;5007539;28;20074;-53
2021/12/16 14:43:01;;;;;;;27.17;3.78;;;9.00;99.90;;;;;;5044397;28;20032;-54
2021/12/16 14:45:43;;;;;;;21.52;3.85;;;8.90;99.90;;;;;;5045232;28;20029;-50
2021/12/16 14:50:52;;;;;;;13.73;3.38;;;8.90;99.90;;;;;;5046178;28;20048;-53
2021/12/16 14:53:19;;;;;;;28.08;4.72;;;8.90;99.90;;;;;;5045110;28;20375;-51
2021/12/16 14:55:47;;;;;;;23.15;4.63;;;8.90;99.90;;;;;;5039564;28;20032;-54
2021/12/16 14:58:14;;;;;;;24.35;4.53;;;8.90;99.90;;;;;;5046390;28;20036;-52
2021/12/16 15:00:49;;;;;;;19.23;4.15;;;8.90;99.90;;;;;;5046617;28;20387;-55
2021/12/16 15:03:29;;;;;;;19.48;4.43;;;8.90;99.90;;;;;;5045722;28;20137;-54
2021/12/16 15:06:03;;;;;;;17.88;4.00;;;8.90;99.90;;;;;;5047617;28;20025;-54
2021/12/16 15:08:45;;;;;;;20.88;4.40;;;8.80;99.90;;;;;;5048114;28;20033;-53
2021/12/16 15:11:25;;;;;;;18.80;3.88;;;8.80;99.90;;;;;;5043483;28;20025;-53
2021/12/16 15:13:56;;;;;;;18.52;4.65;;;8.90;99.90;;;;;;5041959;28;20623;-54
2021/12/16 15:44:11;;;;;;;19.13;3.85;;;8.70;99.90;;;;;;5047950;28;20298;-53
2021/12/16 15:46:38;;;;;;;35.03;6.18;;;8.70;99.90;;;;;;5040654;28;20031;-53
2021/12/16 15:49:05;;;;;;;21.98;4.82;;;8.60;99.90;;;;;;5049815;28;20348;-51
2021/12/16 15:51:31;;;;;;;20.52;4.13;;;8.60;99.90;;;;;;5049403;28;20032;-51
2021/12/16 15:53:59;;;;;;;22.17;4.00;;;8.60;99.90;;;;;;5051562;28;20029;-54
2021/12/16 15:56:34;;;;;;;17.45;4.05;;;8.60;99.90;;;;;;5047671;28;21300;-54
2021/12/16 15:59:05;;;;;;;16.45;4.88;;;8.60;99.90;;;;;;5044900;28;20025;-54
2021/12/16 16:01:46;;;;;;;16.67;4.35;;;8.60;99.90;;;;;;5047013;28;20463;-57
2021/12/16 16:04:26;;;;;;;19.80;5.38;;;8.60;99.90;;;;;;5048319;28;20032;-52
2021/12/16 16:06:57;;;;;;;19.20;4.30;;;8.60;99.90;;;;;;5046075;28;20073;-56
2021/12/16 16:09:23;;;;;;;22.40;5.53;;;8.60;99.90;;;;;;5046385;28;20037;-58
2021/12/16 16:11:52;;;;;;;18.63;4.80;;;8.60;99.90;;;;;;5049733;28;20367;-59
2021/12/16 16:14:19;;;;;;;21.20;4.88;;;8.60;99.90;;;;;;5051553;28;20037;-54
2021/12/16 16:16:50;;;;;;;14.70;5.15;;;8.50;99.90;;;;;;5046788;28;20037;-54
2021/12/16 16:19:32;;;;;;;36.55;6.47;;;8.50;99.90;;;;;;5039519;28;20037;-55
2021/12/16 16:22:03;;;;;;;29.10;6.38;;;8.40;99.90;;;;;;5050588;28;20033;-51
2021/12/16 16:24:35;;;;;;;23.90;5.82;;;8.40;99.90;;;;;;5047905;28;20037;-52
2021/12/16 16:27:08;;;;;;;17.08;5.82;;;8.40;99.90;;;;;;5051752;28;20036;-51
2021/12/16 16:29:36;;;;;;;20.92;6.03;;;8.40;99.90;;;;;;5050111;28;20033;-55
2021/12/16 16:32:03;;;;;;;23.58;6.95;;;8.40;99.90;;;;;;5040181;28;20033;-58
2021/12/16 16:34:49;;;;;;;22.70;6.10;;;8.40;99.90;;;;;;5042484;28;20119;-58
2021/12/16 16:37:41;;;;;;;21.88;6.13;;;8.40;99.90;;;;;;5051700;28;20029;-57
2021/12/16 16:40:10;;;;;;;21.45;6.05;;;8.40;99.90;;;;;;5049351;28;20037;-53
2021/12/16 16:42:39;;;;;;;24.05;5.60;;;8.40;99.90;;;;;;5049244;28;20159;-51
2021/12/16 16:45:08;;;;;;;26.95;7.00;;;8.40;99.90;;;;;;5047057;28;20438;-53